Time;durP1;ratioP1;P1;durP2;ratioP2;P2;SDS_P1;SDS_P2;PMS_P1;PMS_P2;Temp;Humidity;BMP_temperature;BMP_pressure;BME280_temperature;BME280_humidity;BME280_pressure;Samples;Min_cycle;Max_cycle;Signal;HPM_P1;HPM_P2
2021/07/16 00:02:23;;;;;;;;;;;;;;;;;;5070312;28;19939;-72
2021/07/16 00:04:49;;;;;;;;;;;;;;;;;;5070023;28;19917;-72
2021/07/16 00:07:15;;;;;;;;;;;;;;;;;;5070524;28;20268;-72
2021/07/16 00:09:40;;;;;;;;;;;;;;;;;;5072552;28;20003;-72
2021/07/16 00:12:06;;;;;;;;;;;;;;;;;;5076035;28;20368;-72
2021/07/16 00:14:32;;;;;;;;;;;;;;;;;;5073685;28;19913;-72
2021/07/16 00:16:58;;;;;;;;;;;;;;;;;;5075512;28;19920;-71
2021/07/16 00:19:24;;;;;;;;;;;;;;;;;;5071297;28;20387;-71
2021/07/16 00:21:50;;;;;;;;;;;;;;;;;;5082616;28;20054;-72
2021/07/16 00:24:16;;;;;;;;;;;;;;;;;;5073218;28;19908;-72
2021/07/16 00:26:42;;;;;;;;;;;;;;;;;;5057943;28;19912;-72
2021/07/16 00:29:08;;;;;;;;;;;;;;;;;;5075349;28;20002;-72
2021/07/16 00:31:35;;;;;;;;;;;;;;;;;;5070943;28;20011;-71
2021/07/16 00:34:01;;;;;;;;;;;;;;;;;;5071951;28;19917;-72
2021/07/16 00:36:27;;;;;;;;;;;;;;;;;;5074176;28;19919;-72
2021/07/16 00:38:53;;;;;;;;;;;;;;;;;;5071312;28;19920;-72
2021/07/16 00:41:18;;;;;;;;;;;;;;;;;;5057686;28;19916;-72
2021/07/16 00:43:44;;;;;;;;;;;;;;;;;;5070838;28;19913;-72
2021/07/16 00:46:10;;;;;;;;;;;;;;;;;;5071277;28;19964;-72
2021/07/16 00:48:36;;;;;;;;;;;;;;;;;;5073996;28;20007;-72
2021/07/16 00:51:02;;;;;;;;;;;;;;;;;;5071559;28;20359;-72
2021/07/16 00:53:28;;;;;;;;;;;;;;;;;;5071258;28;19916;-72
2021/07/16 00:55:54;;;;;;;;;;;;;;;;;;5070469;28;20008;-72
2021/07/16 00:58:20;;;;;;;;;;;;;;;;;;5074415;28;19908;-72
2021/07/16 01:00:46;;;;;;;;;;;;;;;;;;5072541;28;19916;-72
2021/07/16 01:03:11;;;;;;;;;;;;;;;;;;5072101;28;19912;-72
2021/07/16 01:05:37;;;;;;;;;;;;;;;;;;5070978;28;19908;-72
2021/07/16 01:08:03;;;;;;;;;;;;;;;;;;5070737;28;19958;-72
2021/07/16 01:10:30;;;;;;;;;;;;;;;;;;5069998;28;19919;-72
2021/07/16 01:12:56;;;;;;;;;;;;;;;;;;5071862;28;19929;-72
2021/07/16 01:15:22;;;;;;;;;;;;;;;;;;5073052;28;20291;-72
2021/07/16 01:17:48;;;;;;;;;;;;;;;;;;5070320;28;19916;-72
2021/07/16 01:20:14;;;;;;;;;;;;;;;;;;5069979;28;20378;-72
2021/07/16 01:22:40;;;;;;;;;;;;;;;;;;5070602;28;19912;-72
2021/07/16 01:25:05;;;;;;;;;;;;;;;;;;5070268;28;19999;-72
2021/07/16 01:27:31;;;;;;;;;;;;;;;;;;5074200;28;19915;-72
2021/07/16 01:29:57;;;;;;;;;;;;;;;;;;5069986;28;19913;-72
2021/07/16 01:32:23;;;;;;;;;;;;;;;;;;5070288;28;19920;-72
2021/07/16 01:34:49;;;;;;;;;;;;;;;;;;5070312;28;19922;-72
2021/07/16 01:37:15;;;;;;;;;;;;;;;;;;5069718;28;19913;-72
2021/07/16 01:39:41;;;;;;;;;;;;;;;;;;5072618;28;20264;-72
2021/07/16 01:42:07;;;;;;;;;;;;;;;;;;5070863;28;19912;-72
2021/07/16 01:44:32;;;;;;;;;;;;;;;;;;5070266;28;19970;-72
2021/07/16 01:46:58;;;;;;;;;;;;;;;;;;5069742;28;19921;-72
2021/07/16 01:49:24;;;;;;;;;;;;;;;;;;5069817;28;19913;-72
2021/07/16 01:51:50;;;;;;;;;;;;;;;;;;5072040;28;19934;-71
2021/07/16 01:54:16;;;;;;;;;;;;;;;;;;5070955;28;19935;-72
2021/07/16 01:56:42;;;;;;;;;;;;;;;;;;5069424;28;19974;-72
2021/07/16 01:59:08;;;;;;;;;;;;;;;;;;5069883;28;20265;-71
2021/07/16 02:01:34;;;;;;;;;;;;;;;;;;5082592;28;19913;-72
2021/07/16 02:04:00;;;;;;;;;;;;;;;;;;5071573;28;19952;-72
2021/07/16 02:06:26;;;;;;;;;;;;;;;;;;5073364;28;19920;-72
2021/07/16 02:08:52;;;;;;;;;;;;;;;;;;5068755;28;20352;-72
2021/07/16 02:11:21;;;;;;;;;;;;;;;;;;5071240;28;20387;-72
2021/07/16 02:13:47;;;;;;;;;;;;;;;;;;5072585;28;19920;-71
2021/07/16 02:16:12;;;;;;;;;;;;;;;;;;5069534;28;19920;-72
2021/07/16 02:18:38;;;;;;;;;;;;;;;;;;5071742;28;20368;-72
2021/07/16 02:21:04;;;;;;;;;;;;;;;;;;5071912;28;19908;-72
2021/07/16 02:23:30;;;;;;;;;;;;;;;;;;5069164;28;19992;-71
2021/07/16 02:25:56;;;;;;;;;;;;;;;;;;5069305;28;19916;-72
2021/07/16 02:28:22;;;;;;;;;;;;;;;;;;5069334;28;19919;-72
2021/07/16 02:30:48;;;;;;;;;;;;;;;;;;5055621;28;19916;-71
2021/07/16 02:33:14;;;;;;;;;;;;;;;;;;5069421;28;19917;-71
2021/07/16 02:35:40;;;;;;;;;;;;;;;;;;5069040;28;19919;-71
2021/07/16 02:38:05;;;;;;;;;;;;;;;;;;5068891;28;19912;-72
2021/07/16 02:40:31;;;;;;;;;;;;;;;;;;5068834;28;19912;-71
2021/07/16 02:42:57;;;;;;;;;;;;;;;;;;5070007;28;19918;-71
2021/07/16 02:45:23;;;;;;;;;;;;;;;;;;5071450;28;20374;-71
2021/07/16 02:47:49;;;;;;;;;;;;;;;;;;5055319;28;19916;-71
2021/07/16 02:50:15;;;;;;;;;;;;;;;;;;5068985;28;20423;-71
2021/07/16 02:52:41;;;;;;;;;;;;;;;;;;5068277;28;19927;-71
2021/07/16 02:55:07;;;;;;;;;;;;;;;;;;5068796;28;19944;-72
2021/07/16 02:57:32;;;;;;;;;;;;;;;;;;5058652;28;19909;-72
2021/07/16 02:59:58;;;;;;;;;;;;;;;;;;5072317;28;20419;-72
2021/07/16 03:02:24;;;;;;;;;;;;;;;;;;5068414;28;19966;-71
2021/07/16 03:04:50;;;;;;;;;;;;;;;;;;5068689;28;19920;-71
2021/07/16 03:07:16;;;;;;;;;;;;;;;;;;5068656;28;19912;-72
2021/07/16 03:09:42;;;;;;;;;;;;;;;;;;5070739;28;19961;-71
2021/07/16 03:12:08;;;;;;;;;;;;;;;;;;5073538;28;19925;-71
2021/07/16 03:14:34;;;;;;;;;;;;;;;;;;5070009;28;20363;-71
2021/07/16 03:17:00;;;;;;;;;;;;;;;;;;5068616;28;19913;-71
2021/07/16 03:19:26;;;;;;;;;;;;;;;;;;5070444;28;19919;-70
2021/07/16 03:21:51;;;;;;;;;;;;;;;;;;5070286;28;19912;-71
2021/07/16 03:24:17;;;;;;;;;;;;;;;;;;5069904;28;19915;-71
2021/07/16 03:26:43;;;;;;;;;;;;;;;;;;5068136;28;19919;-71
2021/07/16 03:29:09;;;;;;;;;;;;;;;;;;5068605;28;19917;-71
2021/07/16 03:31:35;;;;;;;;;;;;;;;;;;5068497;28;19935;-71
2021/07/16 03:34:01;;;;;;;;;;;;;;;;;;5068123;28;19967;-71
2021/07/16 03:36:27;;;;;;;;;;;;;;;;;;5071121;28;19962;-71
2021/07/16 03:38:53;;;;;;;;;;;;;;;;;;5068525;28;19958;-71
2021/07/16 03:41:19;;;;;;;;;;;;;;;;;;5068472;28;19916;-71
2021/07/16 03:43:45;;;;;;;;;;;;;;;;;;5067764;28;19920;-71
2021/07/16 03:46:11;;;;;;;;;;;;;;;;;;5068203;28;19921;-71
2021/07/16 03:48:36;;;;;;;;;;;;;;;;;;5071106;28;19916;-71
2021/07/16 03:51:02;;;;;;;;;;;;;;;;;;5068504;28;19963;-71
2021/07/16 03:53:28;;;;;;;;;;;;;;;;;;5067599;28;20307;-71
2021/07/16 03:55:54;;;;;;;;;;;;;;;;;;5067934;28;19923;-71
2021/07/16 03:58:20;;;;;;;;;;;;;;;;;;5050243;28;19919;-70
2021/07/16 04:00:46;;;;;;;;;;;;;;;;;;5070169;28;19954;-71
2021/07/16 04:03:15;;;;;;;;;;;;;;;;;;5069203;28;20290;-71
2021/07/16 04:05:41;;;;;;;;;;;;;;;;;;5068057;28;19962;-71
2021/07/16 04:08:09;;;;;;;;;;;;;;;;;;5067719;28;20344;-71
2021/07/16 04:10:35;;;;;;;;;;;;;;;;;;5068247;28;19998;-71
2021/07/16 04:13:01;;;;;;;;;;;;;;;;;;5068218;28;20362;-71
2021/07/16 04:15:27;;;;;;;;;;;;;;;;;;5071146;28;20029;-71
2021/07/16 04:17:53;;;;;;;;;;;;;;;;;;5067776;28;19952;-71
2021/07/16 04:20:19;;;;;;;;;;;;;;;;;;5067550;28;19978;-72
2021/07/16 04:22:45;;;;;;;;;;;;;;;;;;5067408;28;19966;-71
2021/07/16 04:25:14;;;;;;;;;;;;;;;;;;5067940;28;20395;-71
2021/07/16 04:27:40;;;;;;;;;;;;;;;;;;5070700;28;20011;-63
2021/07/16 04:30:06;;;;;;;;;;;;;;;;;;5068443;28;19988;-63
2021/07/16 04:32:32;;;;;;;;;;;;;;;;;;5067370;28;19921;-63
2021/07/16 04:34:58;;;;;;;;;;;;;;;;;;5067433;28;20378;-63
2021/07/16 04:37:24;;;;;;;;;;;;;;;;;;5070185;28;19917;-63
2021/07/16 04:39:50;;;;;;;;;;;;;;;;;;5073717;28;19916;-63
2021/07/16 04:42:16;;;;;;;;;;;;;;;;;;5072788;28;20355;-63
2021/07/16 04:44:42;;;;;;;;;;;;;;;;;;5071034;28;19912;-64
2021/07/16 04:47:08;;;;;;;;;;;;;;;;;;5071069;28;20415;-64
2021/07/16 04:49:34;;;;;;;;;;;;;;;;;;5071315;28;20041;-63
2021/07/16 04:52:00;;;;;;;;;;;;;;;;;;5072026;28;19913;-63
2021/07/16 04:54:26;;;;;;;;;;;;;;;;;;5073825;28;19935;-64
2021/07/16 04:56:53;;;;;;;;;;;;;;;;;;5072042;28;20368;-64
2021/07/16 04:59:19;;;;;;;;;;;;;;;;;;5070968;28;19917;-65
2021/07/16 05:01:44;;;;;;;;;;;;;;;;;;5070621;28;19912;-63
2021/07/16 05:04:10;;;;;;;;;;;;;;;;;;5070615;28;19939;-64
2021/07/16 05:06:36;;;;;;;;;;;;;;;;;;5073881;28;19938;-63
2021/07/16 05:09:02;;;;;;;;;;;;;;;;;;5072630;28;20465;-63
2021/07/16 05:11:30;;;;;;;;;;;;;;;;;;5070606;28;19990;-64
2021/07/16 05:13:56;;;;;;;;;;;;;;;;;;5070776;28;19920;-63
2021/07/16 05:16:22;;;;;;;;;;;;;;;;;;5070194;28;20391;-64
2021/07/16 05:18:48;;;;;;;;;;;;;;;;;;5073179;28;19908;-64
2021/07/16 05:21:14;;;;;;;;;;;;;;;;;;5071688;28;19913;-64
2021/07/16 05:23:40;;;;;;;;;;;;;;;;;;5070515;28;19921;-64
2021/07/16 05:26:06;;;;;;;;;;;;;;;;;;5070136;28;19955;-65
2021/07/16 05:28:31;;;;;;;;;;;;;;;;;;5070419;28;19967;-63
2021/07/16 05:30:57;;;;;;;;;;;;;;;;;;5077041;28;19913;-63
2021/07/16 05:33:23;;;;;;;;;;;;;;;;;;5072791;28;19916;-64
2021/07/16 05:35:49;;;;;;;;;;;;;;;;;;5073117;28;20027;-63
2021/07/16 05:38:15;;;;;;;;;;;;;;;;;;5075927;28;19975;-64
2021/07/16 05:40:41;;;;;;;;;;;;;;;;;;5062736;28;19947;-64
2021/07/16 05:43:07;;;;;;;;;;;;;;;;;;5069534;28;19919;-63
2021/07/16 05:45:33;;;;;;;;;;;;;;;;;;5073475;28;19909;-62
2021/07/16 05:48:00;;;;;;;;;;;;;;;;;;5053329;28;19916;-62
2021/07/16 05:50:26;;;;;;;;;;;;;;;;;;5065771;28;19970;-63
2021/07/16 05:52:52;;;;;;;;;;;;;;;;;;5069711;28;19920;-63
2021/07/16 05:55:18;;;;;;;;;;;;;;;;;;5068838;28;19947;-64
2021/07/16 05:57:44;;;;;;;;;;;;;;;;;;5086410;28;19908;-63
2021/07/16 06:00:10;;;;;;;;;;;;;;;;;;5070329;28;19912;-64
2021/07/16 06:02:36;;;;;;;;;;;;;;;;;;5069863;28;19956;-63
2021/07/16 06:05:01;;;;;;;;;;;;;;;;;;5069378;28;19912;-64
2021/07/16 06:07:27;;;;;;;;;;;;;;;;;;5075106;28;20253;-63
2021/07/16 06:09:53;;;;;;;;;;;;;;;;;;5070819;28;19915;-63
2021/07/16 06:12:21;;;;;;;;;;;;;;;;;;5055655;28;20388;-63
2021/07/16 06:14:47;;;;;;;;;;;;;;;;;;5067140;28;20368;-65
2021/07/16 06:17:13;;;;;;;;;;;;;;;;;;5072835;28;19958;-63
2021/07/16 06:19:39;;;;;;;;;;;;;;;;;;5067134;28;19977;-64
2021/07/16 06:22:05;;;;;;;;;;;;;;;;;;5069917;28;19919;-64
2021/07/16 06:24:31;;;;;;;;;;;;;;;;;;5072795;28;19918;-64
2021/07/16 06:26:57;;;;;;;;;;;;;;;;;;5077665;28;19912;-63
2021/07/16 06:29:22;;;;;;;;;;;;;;;;;;5073835;28;19920;-63
2021/07/16 06:31:48;;;;;;;;;;;;;;;;;;5068356;28;19912;-63
2021/07/16 06:34:14;;;;;;;;;;;;;;;;;;5068049;28;20026;-63
2021/07/16 06:36:40;;;;;;;;;;;;;;;;;;5076662;28;19908;-63
2021/07/16 06:39:06;;;;;;;;;;;;;;;;;;5068309;28;19908;-63
2021/07/16 06:41:32;;;;;;;;;;;;;;;;;;5067035;28;20061;-64
2021/07/16 06:43:58;;;;;;;;;;;;;;;;;;5067745;28;19916;-63
2021/07/16 06:46:23;;;;;;;;;;;;;;;;;;5070575;28;19958;-62
2021/07/16 06:48:49;;;;;;;;;;;;;;;;;;5070133;28;19955;-63
2021/07/16 06:51:17;;;;;;;;;;;;;;;;;;5065928;28;19916;-63
2021/07/16 06:53:43;;;;;;;;;;;;;;;;;;5066172;28;20023;-61
2021/07/16 06:56:09;;;;;;;;;;;;;;;;;;5069723;28;20003;-64
2021/07/16 06:58:35;;;;;;;;;;;;;;;;;;5079097;28;20314;-62
2021/07/16 07:01:01;;;;;;;;;;;;;;;;;;5068071;28;19919;-63
2021/07/16 07:03:27;;;;;;;;;;;;;;;;;;5069587;28;20431;-63
2021/07/16 07:05:53;;;;;;;;;;;;;;;;;;5067855;28;20007;-62
2021/07/16 07:08:19;;;;;;;;;;;;;;;;;;5067061;28;20007;-67
2021/07/16 07:10:45;;;;;;;;;;;;;;;;;;5065224;28;20352;-63
2021/07/16 07:13:11;;;;;;;;;;;;;;;;;;5067250;28;19962;-62
2021/07/16 07:15:37;;;;;;;;;;;;;;;;;;5070657;28;19912;-62
2021/07/16 07:18:02;;;;;;;;;;;;;;;;;;5079375;28;19912;-63
2021/07/16 07:20:28;;;;;;;;;;;;;;;;;;5072685;28;19920;-63
2021/07/16 07:22:54;;;;;;;;;;;;;;;;;;5066701;28;19912;-63
2021/07/16 07:25:20;;;;;;;;;;;;;;;;;;5075456;28;19913;-63
2021/07/16 07:27:46;;;;;;;;;;;;;;;;;;5073049;28;20265;-63
2021/07/16 07:30:12;;;;;;;;;;;;;;;;;;5069286;28;19955;-63
2021/07/16 07:32:38;;;;;;;;;;;;;;;;;;5067812;28;20015;-62
2021/07/16 07:35:12;;;;;;;;;;;;;;;;;;5067778;28;19912;-62
2021/07/16 07:37:38;;;;;;;;;;;;;;;;;;5071958;28;19912;-64
2021/07/16 07:42:49;;;;;;;;;;;;;;;;;;5067060;28;20416;-64
2021/07/16 07:45:15;;;;;;;;;;;;;;;;;;5068573;28;19995;-64
2021/07/16 07:47:41;;;;;;;;;;;;;;;;;;5071307;28;19912;-63
2021/07/16 07:50:07;;;;;;;;;;;;;;;;;;5066690;28;19912;-63
2021/07/16 07:52:33;;;;;;;;;;;;;;;;;;5068012;28;19935;-63
2021/07/16 07:54:58;;;;;;;;;;;;;;;;;;5068348;28;20323;-63
2021/07/16 07:57:24;;;;;;;;;;;;;;;;;;5071754;28;19939;-65
2021/07/16 07:59:50;;;;;;;;;;;;;;;;;;5069120;28;20394;-63
2021/07/16 08:02:16;;;;;;;;;;;;;;;;;;5067563;28;19958;-64
2021/07/16 08:04:42;;;;;;;;;;;;;;;;;;5067028;28;19913;-64
2021/07/16 08:07:08;;;;;;;;;;;;;;;;;;5068110;28;19912;-61
2021/07/16 08:09:34;;;;;;;;;;;;;;;;;;5070772;28;19992;-61
2021/07/16 08:12:00;;;;;;;;;;;;;;;;;;5069947;28;19924;-61
2021/07/16 08:14:25;;;;;;;;;;;;;;;;;;5057879;28;19920;-62
2021/07/16 08:16:51;;;;;;;;;;;;;;;;;;5071585;28;20288;-61
2021/07/16 08:19:17;;;;;;;;;;;;;;;;;;5071194;28;19916;-62
2021/07/16 08:21:43;;;;;;;;;;;;;;;;;;5073968;28;19937;-62
2021/07/16 08:24:09;;;;;;;;;;;;;;;;;;5067519;28;20125;-62
2021/07/16 08:26:35;;;;;;;;;;;;;;;;;;5070872;28;20007;-61
2021/07/16 08:29:01;;;;;;;;;;;;;;;;;;5070146;28;20276;-61
2021/07/16 08:31:26;;;;;;;;;;;;;;;;;;5051105;28;19928;-61
2021/07/16 08:33:52;;;;;;;;;;;;;;;;;;5072270;28;19916;-61
2021/07/16 08:36:18;;;;;;;;;;;;;;;;;;5072423;28;20014;-61
2021/07/16 08:38:46;;;;;;;;;;;;;;;;;;5071777;28;19912;-62
2021/07/16 08:41:12;;;;;;;;;;;;;;;;;;5070719;28;19916;-62
2021/07/16 08:43:37;;;;;;;;;;;;;;;;;;5065096;28;19919;-61
2021/07/16 08:46:03;;;;;;;;;;;;;;;;;;5071680;28;19956;-60
2021/07/16 08:48:29;;;;;;;;;;;;;;;;;;5074354;28;19914;-60
2021/07/16 08:50:55;;;;;;;;;;;;;;;;;;5071964;28;19916;-60
2021/07/16 08:53:22;;;;;;;;;;;;;;;;;;5070569;28;19925;-60
2021/07/16 08:55:48;;;;;;;;;;;;;;;;;;5070730;28;19912;-60
2021/07/16 08:58:15;;;;;;;;;;;;;;;;;;5085817;28;19917;-61
2021/07/16 09:00:40;;;;;;;;;;;;;;;;;;5074013;28;19947;-61
2021/07/16 09:03:06;;;;;;;;;;;;;;;;;;5072068;28;19916;-61
2021/07/16 09:05:32;;;;;;;;;;;;;;;;;;5071708;28;19966;-61
2021/07/16 09:07:59;;;;;;;;;;;;;;;;;;5078798;28;19963;-61
2021/07/16 09:10:27;;;;;;;;;;;;;;;;;;5070994;28;19913;-61
2021/07/16 09:12:53;;;;;;;;;;;;;;;;;;5077099;28;19924;-61
2021/07/16 09:15:19;;;;;;;;;;;;;;;;;;5072553;28;19941;-61
2021/07/16 09:17:47;;;;;;;;;;;;;;;;;;5070827;28;19909;-60
2021/07/16 09:20:12;;;;;;;;;;;;;;;;;;5070546;28;20387;-60
2021/07/16 09:22:38;;;;;;;;;;;;;;;;;;5070191;28;19915;-61
2021/07/16 09:25:04;;;;;;;;;;;;;;;;;;5071144;28;19912;-61
2021/07/16 09:27:30;;;;;;;;;;;;;;;;;;5073526;28;19913;-61
2021/07/16 09:29:56;;;;;;;;;;;;;;;;;;5070394;28;19908;-61
2021/07/16 09:32:22;;;;;;;;;;;;;;;;;;5069772;28;19958;-62
2021/07/16 09:34:48;;;;;;;;;;;;;;;;;;5069919;28;19913;-61
2021/07/16 09:37:14;;;;;;;;;;;;;;;;;;5069637;28;19913;-61
2021/07/16 09:39:40;;;;;;;;;;;;;;;;;;5073411;28;20332;-61
2021/07/16 09:42:05;;;;;;;;;;;;;;;;;;5071335;28;19912;-62
2021/07/16 09:44:31;;;;;;;;;;;;;;;;;;5069598;28;19912;-61
2021/07/16 09:46:57;;;;;;;;;;;;;;;;;;5070253;28;19963;-61
2021/07/16 09:49:23;;;;;;;;;;;;;;;;;;5070336;28;20379;-61
2021/07/16 09:51:49;;;;;;;;;;;;;;;;;;5072145;28;19916;-61
2021/07/16 09:54:15;;;;;;;;;;;;;;;;;;5071076;28;19928;-61
2021/07/16 09:56:41;;;;;;;;;;;;;;;;;;5070216;28;19908;-62
2021/07/16 09:59:07;;;;;;;;;;;;;;;;;;5070157;28;19913;-63
2021/07/16 10:01:33;;;;;;;;;;;;;;;;;;5069896;28;20437;-62
2021/07/16 10:04:02;;;;;;;;;;;;;;;;;;5071100;28;19920;-62
2021/07/16 10:06:28;;;;;;;;;;;;;;;;;;5071681;28;19986;-61
2021/07/16 10:08:54;;;;;;;;;;;;;;;;;;5069921;28;19913;-63
2021/07/16 10:11:20;;;;;;;;;;;;;;;;;;5069073;28;20372;-63
2021/07/16 10:13:46;;;;;;;;;;;;;;;;;;5069822;28;19920;-61
2021/07/16 10:16:12;;;;;;;;;;;;;;;;;;5069831;28;19998;-61
2021/07/16 10:18:37;;;;;;;;;;;;;;;;;;5072774;28;19909;-61
2021/07/16 10:21:03;;;;;;;;;;;;;;;;;;5069406;28;20003;-61
2021/07/16 10:23:29;;;;;;;;;;;;;;;;;;5069433;28;19921;-61
2021/07/16 10:25:55;;;;;;;;;;;;;;;;;;5069499;28;20331;-62
2021/07/16 10:28:21;;;;;;;;;;;;;;;;;;5069587;28;19920;-62
2021/07/16 10:30:47;;;;;;;;;;;;;;;;;;5071645;28;19916;-62
2021/07/16 10:33:13;;;;;;;;;;;;;;;;;;5069971;28;19946;-61
2021/07/16 10:35:39;;;;;;;;;;;;;;;;;;5068028;28;20003;-62
2021/07/16 10:38:04;;;;;;;;;;;;;;;;;;5069484;28;20368;-61
2021/07/16 10:40:30;;;;;;;;;;;;;;;;;;5071263;28;19987;-61
2021/07/16 10:42:56;;;;;;;;;;;;;;;;;;5069693;28;20834;-61
2021/07/16 10:45:22;;;;;;;;;;;;;;;;;;5065818;28;19908;-61
2021/07/16 10:47:50;;;;;;;;;;;;;;;;;;5069093;28;19913;-60
2021/07/16 10:50:16;;;;;;;;;;;;;;;;;;5068167;28;19999;-60
2021/07/16 10:52:42;;;;;;;;;;;;;;;;;;5073159;28;20023;-60
2021/07/16 10:55:08;;;;;;;;;;;;;;;;;;5068699;28;19916;-62
2021/07/16 10:57:34;;;;;;;;;;;;;;;;;;5071860;28;19913;-61
2021/07/16 10:59:59;;;;;;;;;;;;;;;;;;5068865;28;19959;-61
2021/07/16 11:02:25;;;;;;;;;;;;;;;;;;5068845;28;19991;-61
2021/07/16 11:04:51;;;;;;;;;;;;;;;;;;5067780;28;19920;-61
2021/07/16 11:07:17;;;;;;;;;;;;;;;;;;5068946;28;19948;-61
2021/07/16 11:09:45;;;;;;;;;;;;;;;;;;5071546;28;19908;-61
2021/07/16 11:12:11;;;;;;;;;;;;;;;;;;5070976;28;19920;-61
2021/07/16 11:14:36;;;;;;;;;;;;;;;;;;5068297;28;19962;-62
2021/07/16 11:17:03;;;;;;;;;;;;;;;;;;5067081;28;19947;-62
2021/07/16 11:19:28;;;;;;;;;;;;;;;;;;5067515;28;19916;-61
2021/07/16 11:21:54;;;;;;;;;;;;;;;;;;5069586;28;19909;-61
2021/07/16 11:24:43;;;;;;;;;;;;;;;;;;5070014;28;19912;-61
2021/07/16 11:27:07;;;;;;;;;;;;;;;;;;5068235;28;19938;-61
2021/07/16 11:29:34;;;;;;;;;;;;;;;;;;5067441;28;19913;-61
2021/07/16 11:32:00;;;;;;;;;;;;;;;;;;5068373;28;19927;-61
2021/07/16 11:34:26;;;;;;;;;;;;;;;;;;5068618;28;20277;-61
2021/07/16 11:36:52;;;;;;;;;;;;;;;;;;5070903;28;19999;-61
2021/07/16 11:39:17;;;;;;;;;;;;;;;;;;5070070;28;19915;-61
2021/07/16 11:41:43;;;;;;;;;;;;;;;;;;5070022;28;19966;-61
2021/07/16 11:44:09;;;;;;;;;;;;;;;;;;5068395;28;19920;-61
2021/07/16 11:46:35;;;;;;;;;;;;;;;;;;5072174;28;20275;-61
2021/07/16 11:49:01;;;;;;;;;;;;;;;;;;5073092;28;19913;-61
2021/07/16 11:51:27;;;;;;;;;;;;;;;;;;5075101;28;19908;-61
2021/07/16 11:53:53;;;;;;;;;;;;;;;;;;5072648;28;20379;-61
2021/07/16 11:56:19;;;;;;;;;;;;;;;;;;5072700;28;19912;-61
2021/07/16 11:58:44;;;;;;;;;;;;;;;;;;5072126;28;19965;-61
2021/07/16 12:01:10;;;;;;;;;;;;;;;;;;5072469;28;19940;-60
2021/07/16 12:03:36;;;;;;;;;;;;;;;;;;5075501;28;19909;-60
2021/07/16 12:06:04;;;;;;;;;;;;;;;;;;5072166;28;20271;-61
2021/07/16 12:08:31;;;;;;;;;;;;;;;;;;5072385;28;19962;-60
2021/07/16 12:10:56;;;;;;;;;;;;;;;;;;5072273;28;19912;-61
2021/07/16 12:13:22;;;;;;;;;;;;;;;;;;5072126;28;20326;-60
2021/07/16 12:15:48;;;;;;;;;;;;;;;;;;5073456;28;19918;-60
2021/07/16 12:18:14;;;;;;;;;;;;;;;;;;5075053;28;19962;-60
2021/07/16 12:20:41;;;;;;;;;;;;;;;;;;5071930;28;19916;-61
2021/07/16 12:23:08;;;;;;;;;;;;;;;;;;5072189;28;20308;-60
2021/07/16 12:25:35;;;;;;;;;;;;;;;;;;5071673;28;20003;-60
2021/07/16 12:28:01;;;;;;;;;;;;;;;;;;5072908;28;19919;-60
2021/07/16 12:30:26;;;;;;;;;;;;;;;;;;5074233;28;19909;-67
2021/07/16 12:32:52;;;;;;;;;;;;;;;;;;5071762;28;19943;-67
2021/07/16 12:35:18;;;;;;;;;;;;;;;;;;5058275;28;19912;-67
2021/07/16 12:37:46;;;;;;;;;;;;;;;;;;5071297;28;19920;-66
2021/07/16 12:40:12;;;;;;;;;;;;;;;;;;5071356;28;19928;-66
2021/07/16 12:42:38;;;;;;;;;;;;;;;;;;5074682;28;19909;-66
2021/07/16 12:45:04;;;;;;;;;;;;;;;;;;5071850;28;20284;-66
2021/07/16 12:47:30;;;;;;;;;;;;;;;;;;5071202;28;19916;-66
2021/07/16 12:49:56;;;;;;;;;;;;;;;;;;5071316;28;20003;-66
2021/07/16 12:52:22;;;;;;;;;;;;;;;;;;5071446;28;19913;-66
2021/07/16 12:54:48;;;;;;;;;;;;;;;;;;5073543;28;20414;-69
2021/07/16 12:57:14;;;;;;;;;;;;;;;;;;5071593;28;20050;-68
2021/07/16 12:59:39;;;;;;;;;;;;;;;;;;5070883;28;19919;-67
2021/07/16 13:02:05;;;;;;;;;;;;;;;;;;5071208;28;20411;-67
2021/07/16 13:04:32;;;;;;;;;;;;;;;;;;5071344;28;19955;-67
2021/07/16 13:06:59;;;;;;;;;;;;;;;;;;5072608;28;19935;-67
2021/07/16 13:09:25;;;;;;;;;;;;;;;;;;5073437;28;19916;-67
2021/07/16 13:11:51;;;;;;;;;;;;;;;;;;5070458;28;19955;-68
2021/07/16 13:14:17;;;;;;;;;;;;;;;;;;5070783;28;19975;-68
2021/07/16 13:16:43;;;;;;;;;;;;;;;;;;5071044;28;19913;-68
2021/07/16 13:19:09;;;;;;;;;;;;;;;;;;5071233;28;19917;-68
2021/07/16 13:21:35;;;;;;;;;;;;;;;;;;5073669;28;20427;-67
2021/07/16 13:24:01;;;;;;;;;;;;;;;;;;5071030;28;19966;-68
2021/07/16 13:26:26;;;;;;;;;;;;;;;;;;5070935;28;19995;-67
2021/07/16 13:28:52;;;;;;;;;;;;;;;;;;5070458;28;19916;-67
2021/07/16 13:31:18;;;;;;;;;;;;;;;;;;5070733;28;20284;-68
2021/07/16 13:33:44;;;;;;;;;;;;;;;;;;5072878;28;19963;-67
2021/07/16 13:36:10;;;;;;;;;;;;;;;;;;5071154;28;20371;-68
2021/07/16 13:38:36;;;;;;;;;;;;;;;;;;5070383;28;19912;-67
2021/07/16 13:41:02;;;;;;;;;;;;;;;;;;5070530;28;19927;-69
2021/07/16 13:43:28;;;;;;;;;;;;;;;;;;5070417;28;19919;-67
2021/07/16 13:45:54;;;;;;;;;;;;;;;;;;5071898;28;19954;-68
2021/07/16 13:48:19;;;;;;;;;;;;;;;;;;5071831;28;19909;-65
2021/07/16 13:50:45;;;;;;;;;;;;;;;;;;5070376;28;20287;-66
2021/07/16 13:53:11;;;;;;;;;;;;;;;;;;5070075;28;19920;-66
2021/07/16 13:55:37;;;;;;;;;;;;;;;;;;5069656;28;19913;-66
2021/07/16 13:58:03;;;;;;;;;;;;;;;;;;5070578;28;19967;-66
2021/07/16 14:00:29;;;;;;;;;;;;;;;;;;5073268;28;20003;-66
2021/07/16 14:02:55;;;;;;;;;;;;;;;;;;5069628;28;20324;-66
2021/07/16 14:05:21;;;;;;;;;;;;;;;;;;5069836;28;19912;-66
2021/07/16 14:07:47;;;;;;;;;;;;;;;;;;5069806;28;19912;-66
2021/07/16 14:10:13;;;;;;;;;;;;;;;;;;5070166;28;19920;-66
2021/07/16 14:12:38;;;;;;;;;;;;;;;;;;5072622;28;19921;-66
2021/07/16 14:15:04;;;;;;;;;;;;;;;;;;5069784;28;20386;-66
2021/07/16 14:17:30;;;;;;;;;;;;;;;;;;5070855;28;19966;-66
2021/07/16 14:19:56;;;;;;;;;;;;;;;;;;5069832;28;19912;-65
2021/07/16 14:22:22;;;;;;;;;;;;;;;;;;5069798;28;19909;-68
2021/07/16 14:24:48;;;;;;;;;;;;;;;;;;5072167;28;19978;-67
2021/07/16 14:27:14;;;;;;;;;;;;;;;;;;5070475;28;20007;-67
2021/07/16 14:29:40;;;;;;;;;;;;;;;;;;5068982;28;19912;-68
2021/07/16 14:32:05;;;;;;;;;;;;;;;;;;5069442;28;19913;-65
2021/07/16 14:34:31;;;;;;;;;;;;;;;;;;5069395;28;19956;-67
2021/07/16 14:36:57;;;;;;;;;;;;;;;;;;5071040;28;19939;-67
2021/07/16 14:39:23;;;;;;;;;;;;;;;;;;5071542;28;19915;-65
2021/07/16 14:41:49;;;;;;;;;;;;;;;;;;5068791;28;19915;-67
2021/07/16 14:44:15;;;;;;;;;;;;;;;;;;5068558;28;19966;-67
2021/07/16 14:46:41;;;;;;;;;;;;;;;;;;5069118;28;19954;-67
2021/07/16 14:49:07;;;;;;;;;;;;;;;;;;5069398;28;20003;-67
2021/07/16 14:51:33;;;;;;;;;;;;;;;;;;5072862;28;19915;-67
2021/07/16 14:54:01;;;;;;;;;;;;;;;;;;5068793;28;19943;-68
2021/07/16 14:56:27;;;;;;;;;;;;;;;;;;5068190;28;19999;-67
2021/07/16 14:58:54;;;;;;;;;;;;;;;;;;5069225;28;19915;-67
2021/07/16 15:01:20;;;;;;;;;;;;;;;;;;5069212;28;19917;-67
2021/07/16 15:03:45;;;;;;;;;;;;;;;;;;5071444;28;19909;-67
2021/07/16 15:06:11;;;;;;;;;;;;;;;;;;5069903;28;20402;-68
2021/07/16 15:08:37;;;;;;;;;;;;;;;;;;5054971;28;19916;-65
2021/07/16 15:11:03;;;;;;;;;;;;;;;;;;5068728;28;19913;-67
2021/07/16 15:13:29;;;;;;;;;;;;;;;;;;5068841;28;19920;-67
2021/07/16 15:15:55;;;;;;;;;;;;;;;;;;5070591;28;19966;-67
2021/07/16 15:18:21;;;;;;;;;;;;;;;;;;5070880;28;19912;-67
2021/07/16 15:20:47;;;;;;;;;;;;;;;;;;5068507;28;19916;-67
2021/07/16 15:23:13;;;;;;;;;;;;;;;;;;5069331;28;19912;-67
2021/07/16 15:25:38;;;;;;;;;;;;;;;;;;5069013;28;19912;-67
2021/07/16 15:28:04;;;;;;;;;;;;;;;;;;5069926;28;19924;-68
2021/07/16 15:30:30;;;;;;;;;;;;;;;;;;5072329;28;19920;-67
2021/07/16 15:32:56;;;;;;;;;;;;;;;;;;5070217;28;20376;-67
2021/07/16 15:35:22;;;;;;;;;;;;;;;;;;5068406;28;19912;-67
2021/07/16 15:37:48;;;;;;;;;;;;;;;;;;5068972;28;20280;-68
2021/07/16 15:40:14;;;;;;;;;;;;;;;;;;5068800;28;19913;-67
2021/07/16 15:42:40;;;;;;;;;;;;;;;;;;5071801;28;19919;-69
2021/07/16 15:45:06;;;;;;;;;;;;;;;;;;5069384;28;20378;-68
2021/07/16 15:47:32;;;;;;;;;;;;;;;;;;5068031;28;19916;-68
2021/07/16 15:49:57;;;;;;;;;;;;;;;;;;5068814;28;19987;-68
2021/07/16 15:52:23;;;;;;;;;;;;;;;;;;5068959;28;19991;-68
2021/07/16 15:54:49;;;;;;;;;;;;;;;;;;5070963;28;19908;-68
2021/07/16 15:57:15;;;;;;;;;;;;;;;;;;5069290;28;19944;-68
2021/07/16 15:59:41;;;;;;;;;;;;;;;;;;5068497;28;19995;-68
2021/07/16 16:02:07;;;;;;;;;;;;;;;;;;5069000;28;19920;-67
2021/07/16 16:04:33;;;;;;;;;;;;;;;;;;5068629;28;19966;-68
2021/07/16 16:06:59;;;;;;;;;;;;;;;;;;5070143;28;19934;-68
2021/07/16 16:09:25;;;;;;;;;;;;;;;;;;5070491;28;19913;-67
2021/07/16 16:11:51;;;;;;;;;;;;;;;;;;5069805;28;19921;-68
2021/07/16 16:14:16;;;;;;;;;;;;;;;;;;5068157;28;19920;-68
2021/07/16 16:16:42;;;;;;;;;;;;;;;;;;5068790;28;20007;-68
2021/07/16 16:19:08;;;;;;;;;;;;;;;;;;5068526;28;20364;-68
2021/07/16 16:21:34;;;;;;;;;;;;;;;;;;5072349;28;19909;-69
2021/07/16 16:24:00;;;;;;;;;;;;;;;;;;5054685;28;20446;-68
2021/07/16 16:26:26;;;;;;;;;;;;;;;;;;5068458;28;19913;-68
2021/07/16 16:28:52;;;;;;;;;;;;;;;;;;5068294;28;19955;-68
2021/07/16 16:31:18;;;;;;;;;;;;;;;;;;5068220;28;19913;-68
2021/07/16 16:33:43;;;;;;;;;;;;;;;;;;5073861;28;19917;-68
2021/07/16 16:36:09;;;;;;;;;;;;;;;;;;5074302;28;20435;-68
2021/07/16 16:38:35;;;;;;;;;;;;;;;;;;5071701;28;19912;-68
2021/07/16 16:41:01;;;;;;;;;;;;;;;;;;5073318;28;19919;-69